createdAt,value
2022-12-09T00:02:12.282Z,18.65
2022-12-09T00:04:39.344Z,17.48
2022-12-09T00:07:06.639Z,18.25
2022-12-09T00:09:33.344Z,18.70
2022-12-09T00:11:59.896Z,18.25
2022-12-09T00:14:26.532Z,16.95
2022-12-09T00:16:53.440Z,17.95
2022-12-09T00:19:20.132Z,18.85
2022-12-09T00:21:46.900Z,16.95
2022-12-09T00:24:14.268Z,17.15
2022-12-09T00:26:41.339Z,17.17
2022-12-09T00:29:08.252Z,16.90
2022-12-09T00:31:37.745Z,18.05
2022-12-09T00:34:08.084Z,17.35
2022-12-09T00:36:34.773Z,16.95
2022-12-09T00:39:01.607Z,17.38
2022-12-09T00:41:29.395Z,16.45
2022-12-09T00:43:57.388Z,16.90
2022-12-09T00:46:24.397Z,17.38
2022-12-09T00:48:51.115Z,17.70
2022-12-09T00:51:20.825Z,18.35
2022-12-09T00:53:48.159Z,16.85
2022-12-09T00:56:14.836Z,17.00
2022-12-09T00:58:41.473Z,18.17
2022-12-09T01:01:08.090Z,17.30
2022-12-09T01:03:35.286Z,18.35
2022-12-09T01:06:06.918Z,17.70
2022-12-09T01:08:37.172Z,18.17
2022-12-09T01:11:14.833Z,18.58
2022-12-09T01:13:41.824Z,19.15
2022-12-09T01:16:17.274Z,18.00
2022-12-09T01:18:44.574Z,18.23
2022-12-09T01:21:11.638Z,18.40
2022-12-09T01:23:38.781Z,18.08
2022-12-09T01:26:06.876Z,17.80
2022-12-09T01:28:38.291Z,18.02
2022-12-09T01:31:11.100Z,17.77
2022-12-09T01:33:38.289Z,17.52
2022-12-09T01:36:07.960Z,17.58
2022-12-09T01:38:34.745Z,17.20
2022-12-09T01:41:01.689Z,17.38
2022-12-09T01:43:28.770Z,16.27
2022-12-09T01:45:55.925Z,16.15
2022-12-09T01:48:26.700Z,16.55
2022-12-09T01:53:25.105Z,15.90
2022-12-09T01:55:55.622Z,16.45
2022-12-09T01:58:24.874Z,17.60
2022-12-09T02:00:52.131Z,15.82
2022-12-09T02:03:19.106Z,17.38
2022-12-09T02:05:46.305Z,16.42
2022-12-09T02:08:15.443Z,16.83
2022-12-09T02:10:57.340Z,17.60
2022-12-09T02:13:52.796Z,17.05
2022-12-09T02:16:23.575Z,16.95
2022-12-09T02:19:12.057Z,16.58
2022-12-09T02:21:48.902Z,16.67
2022-12-09T02:24:24.205Z,17.08
2022-12-09T02:27:08.863Z,18.08
2022-12-09T02:29:57.966Z,17.23
2022-12-09T02:32:41.100Z,17.77
2022-12-09T02:35:37.820Z,17.33
2022-12-09T02:38:15.710Z,17.35
2022-12-09T02:41:10.202Z,17.50
2022-12-09T02:43:49.733Z,16.85
2022-12-09T02:46:19.931Z,16.80
2022-12-09T02:48:52.239Z,18.17
2022-12-09T02:51:20.804Z,17.00
2022-12-09T02:53:53.147Z,17.80
2022-12-09T02:56:21.173Z,17.48
2022-12-09T02:58:49.280Z,17.65
2022-12-09T03:01:21.982Z,17.92
2022-12-09T03:03:50.113Z,17.83
2022-12-09T03:06:19.282Z,18.00
2022-12-09T03:08:54.710Z,17.70
2022-12-09T03:11:24.147Z,18.02
2022-12-09T03:14:03.693Z,17.48
2022-12-09T03:16:36.229Z,17.40
2022-12-09T03:19:42.564Z,17.20
2022-12-09T03:22:14.809Z,18.13
2022-12-09T03:24:55.238Z,18.05
2022-12-09T03:27:39.502Z,16.40
2022-12-09T03:30:08.945Z,17.83
2022-12-09T03:32:38.494Z,17.85
2022-12-09T03:35:10.413Z,17.90
2022-12-09T03:37:40.885Z,17.58
2022-12-09T03:40:14.380Z,17.55
2022-12-09T03:43:10.954Z,17.85
2022-12-09T03:45:37.994Z,17.58
2022-12-09T03:48:04.885Z,17.52
2022-12-09T03:50:36.598Z,17.13
2022-12-09T03:53:53.631Z,17.48
2022-12-09T03:56:28.300Z,17.45
2022-12-09T03:58:59.055Z,18.77
2022-12-09T04:01:27.557Z,18.58
2022-12-09T04:03:56.332Z,19.88
2022-12-09T04:06:25.989Z,19.75
2022-12-09T04:08:55.755Z,20.63
2022-12-09T04:11:26.038Z,19.83
2022-12-09T04:13:52.774Z,20.35
2022-12-09T04:16:19.456Z,21.20
2022-12-09T04:18:46.093Z,20.58
2022-12-09T04:21:14.131Z,19.80
2022-12-09T04:23:43.434Z,19.95
2022-12-09T04:26:16.994Z,19.88
2022-12-09T04:28:47.079Z,20.05
2022-12-09T04:31:15.700Z,20.65
2022-12-09T04:33:43.415Z,20.30
2022-12-09T04:36:13.537Z,21.42
2022-12-09T04:38:42.384Z,21.08
2022-12-09T04:41:09.770Z,20.48
2022-12-09T04:43:37.057Z,20.70
2022-12-09T04:46:06.557Z,21.73
2022-12-09T04:48:33.611Z,21.67
2022-12-09T04:51:01.377Z,20.85
2022-12-09T04:53:28.789Z,21.75
2022-12-09T04:56:06.537Z,22.05
2022-12-09T04:58:34.303Z,21.05
2022-12-09T05:01:06.887Z,20.85
2022-12-09T05:03:33.958Z,22.73
2022-12-09T05:06:07.269Z,22.15
2022-12-09T05:08:36.362Z,20.50
2022-12-09T05:11:04.172Z,20.92
2022-12-09T05:13:31.499Z,21.92
2022-12-09T05:16:12.121Z,21.38
2022-12-09T05:18:41.132Z,20.48
2022-12-09T05:21:12.551Z,20.83
2022-12-09T05:23:39.641Z,21.60
2022-12-09T05:26:08.859Z,20.75
2022-12-09T05:28:35.571Z,20.83
2022-12-09T05:31:04.821Z,21.77
2022-12-09T05:33:32.159Z,21.08
2022-12-09T05:35:59.510Z,21.05
2022-12-09T05:38:26.341Z,20.70
2022-12-09T05:40:53.709Z,20.42
2022-12-09T05:43:20.593Z,21.52
2022-12-09T05:45:47.395Z,21.98
2022-12-09T05:48:14.241Z,21.63
2022-12-09T05:50:41.135Z,20.85
2022-12-09T05:53:07.890Z,21.80
2022-12-09T05:55:34.974Z,19.55
2022-12-09T05:58:02.103Z,20.65
2022-12-09T06:00:29.145Z,22.67
2022-12-09T06:02:56.096Z,20.42
2022-12-09T06:05:22.891Z,21.40
2022-12-09T06:07:49.796Z,22.60
2022-12-09T06:10:17.328Z,22.50
2022-12-09T06:12:44.228Z,20.95
2022-12-09T06:15:13.529Z,21.45
2022-12-09T06:17:44.047Z,21.17
2022-12-09T06:20:11.185Z,20.75
2022-12-09T06:22:38.041Z,21.52
2022-12-09T06:25:05.333Z,21.58
2022-12-09T06:27:32.076Z,20.55
2022-12-09T06:29:58.931Z,20.98
2022-12-09T06:32:25.903Z,22.83
2022-12-09T06:34:53.004Z,22.05
2022-12-09T06:37:20.102Z,22.15
2022-12-09T06:39:47.231Z,21.92
2022-12-09T06:42:14.434Z,23.13
2022-12-09T06:44:41.535Z,22.50
2022-12-09T06:47:08.451Z,23.50
2022-12-09T06:49:35.438Z,21.08
2022-12-09T06:52:02.510Z,22.70
2022-12-09T06:54:29.652Z,21.77
2022-12-09T06:56:56.497Z,22.05
2022-12-09T06:59:23.564Z,23.30
2022-12-09T07:01:50.777Z,22.40
2022-12-09T07:04:17.822Z,22.38
2022-12-09T07:06:46.295Z,22.83
2022-12-09T07:09:16.542Z,21.88
2022-12-09T07:11:46.205Z,22.17
2022-12-09T07:14:14.746Z,21.48
2022-12-09T07:16:42.229Z,21.73
2022-12-09T07:19:19.918Z,22.42
2022-12-09T07:21:47.787Z,22.30
2022-12-09T07:24:15.451Z,20.67
2022-12-09T07:26:42.604Z,20.35
2022-12-09T07:29:09.895Z,20.98
2022-12-09T07:31:36.764Z,22.23
2022-12-09T07:34:04.905Z,22.08
2022-12-09T07:36:34.352Z,22.27
2022-12-09T07:39:04.125Z,20.52
2022-12-09T07:41:31.061Z,22.10
2022-12-09T07:43:57.980Z,21.17
2022-12-09T07:46:28.703Z,21.40
2022-12-09T07:48:57.381Z,22.38
2022-12-09T07:51:25.124Z,20.80
2022-12-09T07:53:52.445Z,21.27
2022-12-09T07:56:19.432Z,21.85
2022-12-09T07:58:53.382Z,21.63
2022-12-09T08:01:26.773Z,22.17
2022-12-09T08:03:54.751Z,21.48
2022-12-09T08:06:24.825Z,22.25
2022-12-09T08:08:52.260Z,22.17
2022-12-09T08:11:22.484Z,22.48
2022-12-09T08:13:49.827Z,23.05
2022-12-09T08:16:19.515Z,23.83
2022-12-09T08:18:47.357Z,23.30
2022-12-09T08:21:19.842Z,24.17
2022-12-09T08:23:47.259Z,24.13
2022-12-09T08:26:16.854Z,25.50
2022-12-09T08:28:44.386Z,26.38
2022-12-09T08:31:13.644Z,26.00
2022-12-09T08:33:41.713Z,27.52
2022-12-09T08:36:18.522Z,25.05
2022-12-09T08:38:45.597Z,25.98
2022-12-09T08:41:35.370Z,24.60
2022-12-09T08:44:12.185Z,23.77
2022-12-09T08:46:41.801Z,23.23
2022-12-09T08:49:09.048Z,22.92
2022-12-09T08:51:36.645Z,25.65
2022-12-09T08:54:05.040Z,22.73
2022-12-09T08:56:32.105Z,22.80
2022-12-09T08:58:58.827Z,22.60
2022-12-09T09:01:32.276Z,22.05
2022-12-09T09:04:07.946Z,21.55
2022-12-09T09:06:36.545Z,20.80
2022-12-09T09:09:05.836Z,20.60
2022-12-09T09:11:33.384Z,20.48
2022-12-09T09:14:02.838Z,20.67
2022-12-09T09:16:29.829Z,20.27
2022-12-09T09:18:56.630Z,19.48
2022-12-09T09:21:24.960Z,19.10
2022-12-09T09:23:51.924Z,18.70
2022-12-09T09:26:21.386Z,18.83
2022-12-09T09:28:49.580Z,19.55
2022-12-09T09:31:20.287Z,18.17
2022-12-09T09:33:47.251Z,17.33
2022-12-09T09:36:17.632Z,18.17
2022-12-09T09:38:44.674Z,18.17
2022-12-09T09:41:27.210Z,17.67
2022-12-09T09:43:55.582Z,17.83
2022-12-09T09:46:43.262Z,17.85
2022-12-09T09:49:20.586Z,17.60
2022-12-09T09:51:47.713Z,17.25
2022-12-09T09:54:16.064Z,14.93
2022-12-09T09:56:55.188Z,15.02
2022-12-09T09:59:43.812Z,13.68
2022-12-09T10:02:48.438Z,14.60
2022-12-09T10:05:41.155Z,15.50
2022-12-09T10:08:13.714Z,15.90
2022-12-09T10:11:07.978Z,16.33
2022-12-09T10:13:49.529Z,14.60
2022-12-09T10:16:42.345Z,14.70
2022-12-09T10:19:17.982Z,14.93
2022-12-09T10:21:46.900Z,15.10
2022-12-09T10:24:29.682Z,15.80
2022-12-09T10:27:05.603Z,15.52
2022-12-09T10:29:35.590Z,15.63
2022-12-09T10:32:02.914Z,15.70
2022-12-09T10:34:30.330Z,15.65
2022-12-09T10:36:57.306Z,15.18
2022-12-09T10:39:24.177Z,15.65
2022-12-09T10:42:12.278Z,15.88
2022-12-09T10:44:39.038Z,15.65
2022-12-09T10:47:28.246Z,16.63
2022-12-09T10:49:56.169Z,15.43
2022-12-09T10:52:25.908Z,15.30
2022-12-09T10:54:53.104Z,15.73
2022-12-09T10:57:19.646Z,15.25
2022-12-09T11:00:02.046Z,14.45
2022-12-09T11:02:31.906Z,14.57
2022-12-09T11:05:18.323Z,13.73
2022-12-09T11:07:49.349Z,13.98
2022-12-09T11:10:24.010Z,13.43
2022-12-09T11:12:54.649Z,15.52
2022-12-09T11:15:38.914Z,15.55
2022-12-09T11:18:29.262Z,15.15
2022-12-09T11:21:05.857Z,14.27
2022-12-09T11:23:34.496Z,14.02
2022-12-09T11:26:14.373Z,14.25
2022-12-09T11:28:41.228Z,14.32
2022-12-09T11:31:35.365Z,14.48
2022-12-09T11:34:06.589Z,14.15
2022-12-09T11:36:38.551Z,14.65
2022-12-09T11:39:21.544Z,14.05
2022-12-09T11:42:19.073Z,13.35
2022-12-09T11:44:56.647Z,13.68
2022-12-09T11:47:36.473Z,14.10
2022-12-09T11:50:19.105Z,13.52
2022-12-09T11:52:46.587Z,13.27
2022-12-09T11:55:22.973Z,13.98
2022-12-09T11:57:55.543Z,14.25
2022-12-09T12:00:25.784Z,14.23
2022-12-09T12:03:03.859Z,14.00
2022-12-09T12:05:39.367Z,12.88
2022-12-09T12:08:19.216Z,12.23
2022-12-09T12:11:00.676Z,13.48
2022-12-09T12:13:47.033Z,13.70
2022-12-09T12:16:27.388Z,13.23
2022-12-09T12:19:03.241Z,12.38
2022-12-09T12:21:49.220Z,12.38
2022-12-09T12:24:33.693Z,13.85
2022-12-09T12:27:00.194Z,11.98
2022-12-09T12:29:45.305Z,12.45
2022-12-09T12:32:39.102Z,12.88
2022-12-09T12:35:40.115Z,13.15
2022-12-09T12:38:18.566Z,12.45
2022-12-09T12:40:58.150Z,12.07
2022-12-09T12:44:01.693Z,12.13
2022-12-09T12:46:36.529Z,11.05
2022-12-09T12:49:22.991Z,10.45
2022-12-09T12:52:21.069Z,11.15
2022-12-09T12:55:10.526Z,11.95
2022-12-09T12:57:47.712Z,11.25
2022-12-09T13:00:26.815Z,11.27
2022-12-09T13:03:24.329Z,11.07
2022-12-09T13:05:54.180Z,11.13
2022-12-09T13:08:32.318Z,10.68
2022-12-09T13:11:06.899Z,11.73
2022-12-09T13:13:51.373Z,10.93
2022-12-09T13:16:31.407Z,11.68
2022-12-09T13:19:23.015Z,12.45
2022-12-09T13:21:50.589Z,9.93
2022-12-09T13:25:03.330Z,9.70
2022-12-09T13:27:45.430Z,10.02
2022-12-09T13:30:20.229Z,10.70
2022-12-09T13:33:08.615Z,11.43
2022-12-09T13:35:46.347Z,11.75
2022-12-09T13:38:29.416Z,12.55
2022-12-09T13:40:55.941Z,11.35
2022-12-09T13:43:31.922Z,10.98
2022-12-09T13:46:01.074Z,11.50
2022-12-09T13:48:50.686Z,10.38
2022-12-09T13:51:18.024Z,11.30
2022-12-09T13:53:47.580Z,11.07
2022-12-09T13:56:16.817Z,12.03
2022-12-09T13:58:52.379Z,11.10
2022-12-09T14:01:28.233Z,10.88
2022-12-09T14:03:54.711Z,10.77
2022-12-09T14:06:25.539Z,10.23
2022-12-09T14:08:56.877Z,10.50
2022-12-09T14:11:38.379Z,9.48
2022-12-09T14:14:23.393Z,10.27
2022-12-09T14:16:51.498Z,9.55
2022-12-09T14:19:24.095Z,9.40
2022-12-09T14:22:22.198Z,9.70
2022-12-09T14:24:53.733Z,10.07
2022-12-09T14:27:27.458Z,10.05
2022-12-09T14:29:58.353Z,10.38
2022-12-09T14:32:27.498Z,10.10
2022-12-09T14:35:12.325Z,9.65
2022-12-09T14:37:51.342Z,11.40
2022-12-09T14:40:34.409Z,12.50
2022-12-09T14:43:15.894Z,12.65
2022-12-09T14:46:00.466Z,12.70
2022-12-09T14:48:39.508Z,13.25
2022-12-09T14:51:18.472Z,12.48
2022-12-09T14:53:55.022Z,12.02
2022-12-09T14:56:24.139Z,12.35
2022-12-09T14:58:54.664Z,13.13
2022-12-09T15:01:21.259Z,12.90
2022-12-09T15:03:59.633Z,13.13
2022-12-09T15:06:27.207Z,13.05
2022-12-09T15:08:56.856Z,13.10
2022-12-09T15:11:31.406Z,12.15
2022-12-09T15:14:21.088Z,12.77
2022-12-09T15:16:50.908Z,12.95
2022-12-09T15:19:51.224Z,13.20
2022-12-09T15:22:22.183Z,12.55
2022-12-09T15:24:50.444Z,11.75
2022-12-09T15:27:20.495Z,12.77
2022-12-09T15:29:47.056Z,11.52
2022-12-09T15:32:27.178Z,11.35
2022-12-09T15:34:54.491Z,12.32
2022-12-09T15:37:28.856Z,12.40
2022-12-09T15:40:01.903Z,12.80
2022-12-09T15:42:32.213Z,13.05
2022-12-09T15:45:08.548Z,12.55
2022-12-09T15:47:42.708Z,12.70
2022-12-09T15:50:29.212Z,12.98
2022-12-09T15:53:16.296Z,12.68
2022-12-09T15:55:51.188Z,12.25
2022-12-09T15:58:22.390Z,13.30
2022-12-09T16:00:51.115Z,13.05
2022-12-09T16:03:22.429Z,13.73
2022-12-09T16:05:58.366Z,13.20
2022-12-09T16:08:37.430Z,13.32
2022-12-09T16:11:05.004Z,13.43
2022-12-09T16:13:32.160Z,13.05
2022-12-09T16:16:01.628Z,13.57
2022-12-09T16:18:33.117Z,14.05
2022-12-09T16:21:13.202Z,13.68
2022-12-09T16:23:40.370Z,13.15
2022-12-09T16:26:07.737Z,14.18
2022-12-09T16:28:36.157Z,13.70
2022-12-09T16:31:16.702Z,13.55
2022-12-09T16:33:48.678Z,12.13
2022-12-09T16:36:19.557Z,12.38
2022-12-09T16:39:23.922Z,11.85
2022-12-09T16:41:53.371Z,11.40
2022-12-09T16:44:22.782Z,11.60
2022-12-09T16:46:49.603Z,10.90
2022-12-09T16:49:16.243Z,10.98
2022-12-09T16:51:42.926Z,11.32
2022-12-09T16:54:20.690Z,13.45
2022-12-09T16:56:48.149Z,12.02
2022-12-09T16:59:14.688Z,12.40
2022-12-09T17:01:42.244Z,11.85
2022-12-09T17:04:28.616Z,11.55
2022-12-09T17:06:55.588Z,11.52
2022-12-09T17:09:22.306Z,11.32
2022-12-09T17:11:49.416Z,11.15
2022-12-09T17:14:16.794Z,10.75
2022-12-09T17:16:43.451Z,11.50
2022-12-09T17:19:12.479Z,11.68
2022-12-09T17:21:39.048Z,11.85
2022-12-09T17:24:06.025Z,11.93
2022-12-09T17:26:32.695Z,11.25
2022-12-09T17:29:01.838Z,11.75
2022-12-09T17:31:29.086Z,11.82
2022-12-09T17:33:56.733Z,11.90
2022-12-09T17:36:23.313Z,12.57
2022-12-09T17:38:49.862Z,12.00
2022-12-09T17:41:20.586Z,11.77
2022-12-09T17:46:14.362Z,11.90
2022-12-09T17:48:41.916Z,11.65
2022-12-09T17:51:14.037Z,12.23
2022-12-09T17:53:43.084Z,12.02
2022-12-09T17:56:15.501Z,12.52
2022-12-09T17:58:42.874Z,12.38
2022-12-09T18:01:19.444Z,11.75
2022-12-09T18:04:07.936Z,12.30
2022-12-09T18:06:34.352Z,11.90
2022-12-09T18:09:03.301Z,12.05
2022-12-09T18:11:29.816Z,12.82
2022-12-09T18:13:56.399Z,13.00
2022-12-09T18:16:22.977Z,11.65
2022-12-09T18:18:50.308Z,12.52
2022-12-09T18:21:19.632Z,12.40
2022-12-09T18:23:46.729Z,12.50
2022-12-09T18:26:15.707Z,13.23
2022-12-09T18:28:42.713Z,13.15
2022-12-09T18:31:11.443Z,12.52
2022-12-09T18:33:39.439Z,12.60
2022-12-09T18:36:15.133Z,14.05
2022-12-09T18:38:42.408Z,13.93
2022-12-09T18:41:23.846Z,12.88
2022-12-09T18:43:52.964Z,13.23
2022-12-09T18:46:26.414Z,13.45
2022-12-09T18:49:02.264Z,12.68
2022-12-09T18:51:29.406Z,13.82
2022-12-09T18:54:00.519Z,14.20
2022-12-09T18:56:27.933Z,13.77
2022-12-09T18:59:11.260Z,13.98
2022-12-09T19:01:41.403Z,14.13
2022-12-09T19:04:15.413Z,14.63
2022-12-09T19:06:44.758Z,14.90
2022-12-09T19:09:14.593Z,13.90
2022-12-09T19:11:42.475Z,14.70
2022-12-09T19:14:10.112Z,14.32
2022-12-09T19:16:37.582Z,14.95
2022-12-09T19:19:09.684Z,14.27
2022-12-09T19:21:37.602Z,14.38
2022-12-09T19:24:04.462Z,14.45
2022-12-09T19:26:32.990Z,14.75
2022-12-09T19:29:02.175Z,15.95
2022-12-09T19:31:36.208Z,17.35
2022-12-09T19:34:08.610Z,16.65
2022-12-09T19:36:35.313Z,16.90
2022-12-09T19:39:03.976Z,17.70
2022-12-09T19:41:30.501Z,17.27
2022-12-09T19:43:59.443Z,17.35
2022-12-09T19:46:27.322Z,17.05
2022-12-09T19:48:54.883Z,17.67
2022-12-09T19:51:24.411Z,17.08
2022-12-09T19:53:55.508Z,18.30
2022-12-09T19:56:22.621Z,19.02
2022-12-09T19:58:49.756Z,19.48
2022-12-09T20:01:28.315Z,19.23
2022-12-09T20:04:39.870Z,18.58
2022-12-09T20:06:57.169Z,18.67
2022-12-09T20:09:24.476Z,18.10
2022-12-09T20:11:52.945Z,17.88
2022-12-09T20:14:19.762Z,18.55
2022-12-09T20:16:46.288Z,18.42
2022-12-09T20:19:12.907Z,19.02
2022-12-09T20:21:40.539Z,18.23
2022-12-09T20:24:08.367Z,18.35
2022-12-09T20:26:36.963Z,18.10
2022-12-09T20:29:09.709Z,18.35
2022-12-09T20:31:37.966Z,18.38
2022-12-09T20:34:07.701Z,19.55
2022-12-09T20:36:36.058Z,18.97
2022-12-09T20:39:06.725Z,18.10
2022-12-09T20:44:00.177Z,17.75
2022-12-09T20:46:29.745Z,16.98
2022-12-09T20:48:56.926Z,18.05
2022-12-09T20:51:26.085Z,18.38
2022-12-09T20:53:53.545Z,17.33
2022-12-09T20:56:21.644Z,17.98
2022-12-09T20:58:51.098Z,18.63
2022-12-09T21:01:29.977Z,17.95
2022-12-09T21:03:58.225Z,18.58
2022-12-09T21:06:29.536Z,18.38
2022-12-09T21:08:59.474Z,17.70
2022-12-09T21:11:26.374Z,18.00
2022-12-09T21:13:57.749Z,18.10
2022-12-09T21:16:27.173Z,17.88
2022-12-09T21:18:56.711Z,18.80
2022-12-09T21:21:25.146Z,17.92
2022-12-09T21:23:54.274Z,18.77
2022-12-09T21:26:22.600Z,18.70
2022-12-09T21:28:50.007Z,17.75
2022-12-09T21:31:28.899Z,18.38
2022-12-09T21:33:57.475Z,18.55
2022-12-09T21:36:30.553Z,18.48
2022-12-09T21:38:57.135Z,18.25
2022-12-09T21:41:27.375Z,18.63
2022-12-09T21:43:55.100Z,18.63
2022-12-09T21:46:30.474Z,19.30
2022-12-09T21:49:03.241Z,17.55
2022-12-09T21:51:31.145Z,17.90
2022-12-09T21:53:57.690Z,19.25
2022-12-09T21:56:26.446Z,18.90
2022-12-09T21:58:55.402Z,17.55
2022-12-09T22:01:26.065Z,18.05
2022-12-09T22:06:19.507Z,17.50
2022-12-09T22:08:46.034Z,18.27
2022-12-09T22:11:15.842Z,18.33
2022-12-09T22:13:42.528Z,17.67
2022-12-09T22:16:11.457Z,18.85
2022-12-09T22:18:38.323Z,18.35
2022-12-09T22:23:55.194Z,19.40
2022-12-09T22:26:23.141Z,19.58
2022-12-09T22:28:49.746Z,19.52
2022-12-09T22:31:18.792Z,19.23
2022-12-09T22:33:45.374Z,19.48
2022-12-09T22:36:13.105Z,20.15
2022-12-09T22:38:41.272Z,18.98
2022-12-09T22:41:11.349Z,19.63
2022-12-09T22:43:38.485Z,19.27
2022-12-09T22:46:10.088Z,20.20
2022-12-09T22:48:36.900Z,19.85
2022-12-09T22:51:12.371Z,20.02
2022-12-09T22:53:39.336Z,20.08
2022-12-09T22:56:06.733Z,20.73
2022-12-09T22:58:34.221Z,21.48
2022-12-09T23:01:00.828Z,20.58
2022-12-09T23:03:27.701Z,20.05
2022-12-09T23:05:54.394Z,20.98
2022-12-09T23:08:21.125Z,19.73
2022-12-09T23:10:47.682Z,19.75
2022-12-09T23:13:14.131Z,19.33
2022-12-09T23:15:40.851Z,19.38
2022-12-09T23:18:07.366Z,19.42
2022-12-09T23:20:33.867Z,19.58
2022-12-09T23:23:00.388Z,19.75
2022-12-09T23:25:26.957Z,20.10
2022-12-09T23:27:53.486Z,19.80
2022-12-09T23:30:19.934Z,18.95
2022-12-09T23:32:46.576Z,18.25
2022-12-09T23:35:13.109Z,19.88
2022-12-09T23:37:39.632Z,19.48
2022-12-09T23:40:07.258Z,20.15
2022-12-09T23:42:33.987Z,18.35
2022-12-09T23:45:00.476Z,19.15
2022-12-09T23:47:26.901Z,19.10
2022-12-09T23:49:53.393Z,19.08
2022-12-09T23:52:19.911Z,19.17
2022-12-09T23:54:46.588Z,18.55
2022-12-09T23:57:13.105Z,19.25
2022-12-09T23:59:39.665Z,18.73
